Honeyville, UT (84314)

2:58 PM MDT on October 31, 2014 (GMT -0600)
Harper Weather | Change Station
CLOSE
Current Station
Personal Weather Station
Location: Brigham City, UT
Elevation: 4242 ft
Nearby Weather Stations
Active Advisory: Wind Advisory

Elev 4242 ft 41.57 °N, 112.03 °W | Updated 5 minutes ago

Clear
Clear
70.1 °F
Feels Like 74 °F
N
2.0
Wind Variable Wind from ESE

Today
High -- | Low -- °F
--% Chance of Precip.
Yesterday
High -- | Low -- °F
Precip. -- in
7:59 AM 6:24 PM
First Quarter, 59% visible
Pressure 29.90 in
Visibility 10.0 miles
Clouds Clear
Heat Index 74 °F
Dew Point 26 °F
Humidity 19%
Rainfall 0.00 in
Snow Depth Not available.
UV 3.6 out of 12
Pollen 1.40 out of 12
Air Quality Not available.
Flu Activity Not available.
METAR KBMC 312035Z AUTO 00000KT 10SM CLR 22/M04 A2990 RMK AO1 T02151042

More Conditions Fewer Conditions

Pressure 29.90 in
Visibility 10.0 miles
Clouds Clear
Heat Index 74 °F
Dew Point 26 °F
Humidity 19%
Rainfall 0.00 in
Snow Depth Not available.
UV 3.6 out of 12
Pollen 1.40 out of 12
Air Quality Not available.
Flu Activity Not available.
METAR KBMC 312035Z AUTO 00000KT 10SM CLR 22/M04 A2990 RMK AO1 T02151042

More Conditions Fewer Conditions

10-Day Weather Forecast

Almanac

Astronomy

Oct. 31, 2014 Rise Set
Actual Time
Civil Twilight
Nautical Twilight
Astronomical Twilight
Moon
Length of Visible Light
Length of Day
Tomorrow will be .
, % of the Moon is Illuminated

Today's Extremes

State Highs State Lows

Community

WunderPhotos

Upload Photos

1,766,734 photos uploaded!

WunderBlogs® & News

Nearby

Air Quality

  Air Quality AQ Index Pollutant
Not available.

Snow Depth

Station Depth Elevation

Earthquake Activity

City Distance Mag. Time & Date
Minimum magnitude displayed is 2.5.

Coastal Water Temperatures

Place Temperature

Nearby Weather Stations